sensor_id;sensor_type;location;lat;lon;timestamp;P1;durP1;ratioP1;P2;durP2;ratioP2
72611;SDS011;60655;52.182;4.474;2023-08-21T00:00:59;8.13;;;2.15;;
72611;SDS011;60655;52.182;4.474;2023-08-21T00:03:00;7.35;;;1.90;;
72611;SDS011;60655;52.182;4.474;2023-08-21T00:05:01;8.63;;;2.17;;
72611;SDS011;60655;52.182;4.474;2023-08-21T00:07:02;6.53;;;1.75;;
72611;SDS011;60655;52.182;4.474;2023-08-21T00:09:03;8.20;;;1.80;;
72611;SDS011;60655;52.182;4.474;2023-08-21T00:11:04;8.18;;;1.90;;
72611;SDS011;60655;52.182;4.474;2023-08-21T00:13:05;6.72;;;1.80;;
72611;SDS011;60655;52.182;4.474;2023-08-21T00:15:06;7.07;;;1.70;;
72611;SDS011;60655;52.182;4.474;2023-08-21T00:17:10;6.03;;;1.80;;
72611;SDS011;60655;52.182;4.474;2023-08-21T00:19:11;5.88;;;1.60;;
72611;SDS011;60655;52.182;4.474;2023-08-21T00:21:12;5.65;;;1.90;;
72611;SDS011;60655;52.182;4.474;2023-08-21T00:23:13;4.20;;;1.90;;
72611;SDS011;60655;52.182;4.474;2023-08-21T00:25:14;5.05;;;1.75;;
72611;SDS011;60655;52.182;4.474;2023-08-21T00:27:15;11.98;;;2.33;;
72611;SDS011;60655;52.182;4.474;2023-08-21T00:29:16;5.07;;;1.70;;
72611;SDS011;60655;52.182;4.474;2023-08-21T00:31:17;4.72;;;1.77;;
72611;SDS011;60655;52.182;4.474;2023-08-21T00:33:18;8.82;;;1.70;;
72611;SDS011;60655;52.182;4.474;2023-08-21T00:35:19;6.22;;;1.80;;
72611;SDS011;60655;52.182;4.474;2023-08-21T00:37:20;6.30;;;1.77;;
72611;SDS011;60655;52.182;4.474;2023-08-21T00:39:21;6.25;;;2.00;;
72611;SDS011;60655;52.182;4.474;2023-08-21T00:41:22;5.18;;;1.70;;
72611;SDS011;60655;52.182;4.474;2023-08-21T00:43:23;5.57;;;1.60;;
72611;SDS011;60655;52.182;4.474;2023-08-21T00:45:24;4.82;;;1.63;;
72611;SDS011;60655;52.182;4.474;2023-08-21T00:47:25;5.40;;;1.60;;
72611;SDS011;60655;52.182;4.474;2023-08-21T00:49:26;7.20;;;1.55;;
72611;SDS011;60655;52.182;4.474;2023-08-21T00:51:27;5.63;;;1.90;;
72611;SDS011;60655;52.182;4.474;2023-08-21T00:53:29;5.57;;;1.75;;
72611;SDS011;60655;52.182;4.474;2023-08-21T00:55:31;11.00;;;2.17;;
72611;SDS011;60655;52.182;4.474;2023-08-21T00:57:32;4.80;;;1.55;;
72611;SDS011;60655;52.182;4.474;2023-08-21T00:59:34;6.68;;;1.40;;
72611;SDS011;60655;52.182;4.474;2023-08-21T01:01:34;7.05;;;1.55;;
72611;SDS011;60655;52.182;4.474;2023-08-21T01:03:36;5.32;;;1.80;;
72611;SDS011;60655;52.182;4.474;2023-08-21T01:05:37;8.15;;;1.75;;
72611;SDS011;60655;52.182;4.474;2023-08-21T01:07:41;5.22;;;1.52;;
72611;SDS011;60655;52.182;4.474;2023-08-21T01:12:33;7.30;;;1.90;;
72611;SDS011;60655;52.182;4.474;2023-08-21T01:14:46;5.93;;;1.70;;
72611;SDS011;60655;52.182;4.474;2023-08-21T01:17:01;4.32;;;1.70;;
72611;SDS011;60655;52.182;4.474;2023-08-21T01:19:07;5.20;;;1.35;;
72611;SDS011;60655;52.182;4.474;2023-08-21T01:23:32;5.30;;;1.40;;
72611;SDS011;60655;52.182;4.474;2023-08-21T01:25:37;6.22;;;1.40;;
72611;SDS011;60655;52.182;4.474;2023-08-21T01:27:40;4.38;;;1.33;;
72611;SDS011;60655;52.182;4.474;2023-08-21T01:29:44;5.13;;;1.50;;
72611;SDS011;60655;52.182;4.474;2023-08-21T01:31:47;6.80;;;1.80;;
72611;SDS011;60655;52.182;4.474;2023-08-21T01:33:58;5.47;;;1.70;;
72611;SDS011;60655;52.182;4.474;2023-08-21T01:36:02;6.00;;;1.38;;
72611;SDS011;60655;52.182;4.474;2023-08-21T01:38:07;4.63;;;1.30;;
72611;SDS011;60655;52.182;4.474;2023-08-21T01:40:08;4.47;;;1.55;;
72611;SDS011;60655;52.182;4.474;2023-08-21T01:42:10;7.45;;;1.80;;
72611;SDS011;60655;52.182;4.474;2023-08-21T01:44:11;5.85;;;1.50;;
72611;SDS011;60655;52.182;4.474;2023-08-21T01:46:12;8.80;;;1.55;;
72611;SDS011;60655;52.182;4.474;2023-08-21T01:48:13;6.70;;;1.42;;
72611;SDS011;60655;52.182;4.474;2023-08-21T01:50:14;7.80;;;1.80;;
72611;SDS011;60655;52.182;4.474;2023-08-21T01:52:15;5.82;;;1.75;;
72611;SDS011;60655;52.182;4.474;2023-08-21T01:54:16;8.10;;;1.88;;
72611;SDS011;60655;52.182;4.474;2023-08-21T01:56:17;5.22;;;1.40;;
72611;SDS011;60655;52.182;4.474;2023-08-21T01:58:18;4.63;;;1.73;;
72611;SDS011;60655;52.182;4.474;2023-08-21T02:00:19;6.20;;;1.48;;
72611;SDS011;60655;52.182;4.474;2023-08-21T02:02:20;5.60;;;1.33;;
72611;SDS011;60655;52.182;4.474;2023-08-21T02:04:20;5.88;;;1.50;;
72611;SDS011;60655;52.182;4.474;2023-08-21T02:06:21;6.20;;;1.50;;
72611;SDS011;60655;52.182;4.474;2023-08-21T02:08:25;6.05;;;1.50;;
72611;SDS011;60655;52.182;4.474;2023-08-21T02:10:27;6.43;;;1.52;;
72611;SDS011;60655;52.182;4.474;2023-08-21T02:12:28;6.35;;;1.58;;
72611;SDS011;60655;52.182;4.474;2023-08-21T02:14:29;7.32;;;1.60;;
72611;SDS011;60655;52.182;4.474;2023-08-21T02:16:30;6.20;;;1.48;;
72611;SDS011;60655;52.182;4.474;2023-08-21T02:18:31;5.88;;;1.60;;
72611;SDS011;60655;52.182;4.474;2023-08-21T02:20:32;6.10;;;1.60;;
72611;SDS011;60655;52.182;4.474;2023-08-21T02:22:33;5.05;;;1.40;;
72611;SDS011;60655;52.182;4.474;2023-08-21T02:24:34;5.32;;;1.60;;
72611;SDS011;60655;52.182;4.474;2023-08-21T02:26:35;5.47;;;1.60;;
72611;SDS011;60655;52.182;4.474;2023-08-21T02:28:36;5.85;;;1.63;;
72611;SDS011;60655;52.182;4.474;2023-08-21T02:30:40;5.03;;;1.70;;
72611;SDS011;60655;52.182;4.474;2023-08-21T02:32:42;6.28;;;1.70;;
72611;SDS011;60655;52.182;4.474;2023-08-21T02:34:43;6.00;;;1.45;;
72611;SDS011;60655;52.182;4.474;2023-08-21T02:36:44;8.00;;;2.10;;
72611;SDS011;60655;52.182;4.474;2023-08-21T02:38:45;6.00;;;1.77;;
72611;SDS011;60655;52.182;4.474;2023-08-21T02:40:46;5.82;;;1.70;;
72611;SDS011;60655;52.182;4.474;2023-08-21T02:42:48;7.07;;;1.70;;
72611;SDS011;60655;52.182;4.474;2023-08-21T02:44:49;4.07;;;1.50;;
72611;SDS011;60655;52.182;4.474;2023-08-21T02:46:49;5.20;;;1.88;;
72611;SDS011;60655;52.182;4.474;2023-08-21T02:48:50;7.13;;;1.77;;
72611;SDS011;60655;52.182;4.474;2023-08-21T02:50:51;4.38;;;1.65;;
72611;SDS011;60655;52.182;4.474;2023-08-21T02:52:52;6.25;;;1.77;;
72611;SDS011;60655;52.182;4.474;2023-08-21T02:54:53;7.32;;;1.90;;
72611;SDS011;60655;52.182;4.474;2023-08-21T02:56:54;7.13;;;1.60;;
72611;SDS011;60655;52.182;4.474;2023-08-21T02:58:55;8.63;;;1.70;;
72611;SDS011;60655;52.182;4.474;2023-08-21T03:00:56;4.35;;;1.40;;
72611;SDS011;60655;52.182;4.474;2023-08-21T03:02:57;6.03;;;1.58;;
72611;SDS011;60655;52.182;4.474;2023-08-21T03:04:58;4.65;;;1.60;;
72611;SDS011;60655;52.182;4.474;2023-08-21T03:06:59;6.32;;;1.90;;
72611;SDS011;60655;52.182;4.474;2023-08-21T03:09:00;7.10;;;1.60;;
72611;SDS011;60655;52.182;4.474;2023-08-21T03:11:01;4.78;;;1.67;;
72611;SDS011;60655;52.182;4.474;2023-08-21T03:13:02;5.57;;;1.80;;
72611;SDS011;60655;52.182;4.474;2023-08-21T03:15:03;5.05;;;1.40;;
72611;SDS011;60655;52.182;4.474;2023-08-21T03:17:05;5.22;;;1.70;;
72611;SDS011;60655;52.182;4.474;2023-08-21T03:19:06;5.30;;;1.40;;
72611;SDS011;60655;52.182;4.474;2023-08-21T03:21:07;6.80;;;1.73;;
72611;SDS011;60655;52.182;4.474;2023-08-21T03:23:08;6.90;;;1.70;;
72611;SDS011;60655;52.182;4.474;2023-08-21T03:25:09;6.50;;;1.75;;
72611;SDS011;60655;52.182;4.474;2023-08-21T03:27:10;5.50;;;1.40;;
72611;SDS011;60655;52.182;4.474;2023-08-21T03:29:11;4.88;;;1.67;;
72611;SDS011;60655;52.182;4.474;2023-08-21T03:31:12;5.38;;;1.63;;
72611;SDS011;60655;52.182;4.474;2023-08-21T03:33:13;8.93;;;1.60;;
72611;SDS011;60655;52.182;4.474;2023-08-21T03:35:14;9.02;;;2.00;;
72611;SDS011;60655;52.182;4.474;2023-08-21T03:37:15;4.68;;;1.88;;
72611;SDS011;60655;52.182;4.474;2023-08-21T03:39:16;7.00;;;1.70;;
72611;SDS011;60655;52.182;4.474;2023-08-21T03:41:17;5.40;;;1.33;;
72611;SDS011;60655;52.182;4.474;2023-08-21T03:43:17;5.82;;;1.88;;
72611;SDS011;60655;52.182;4.474;2023-08-21T03:45:18;8.30;;;1.77;;
72611;SDS011;60655;52.182;4.474;2023-08-21T03:47:19;6.43;;;1.50;;
72611;SDS011;60655;52.182;4.474;2023-08-21T03:49:20;4.95;;;1.38;;
72611;SDS011;60655;52.182;4.474;2023-08-21T03:51:21;4.70;;;1.33;;
72611;SDS011;60655;52.182;4.474;2023-08-21T03:53:22;4.40;;;1.40;;
72611;SDS011;60655;52.182;4.474;2023-08-21T03:55:23;4.30;;;1.42;;
72611;SDS011;60655;52.182;4.474;2023-08-21T03:57:24;5.20;;;1.42;;
72611;SDS011;60655;52.182;4.474;2023-08-21T03:59:25;4.82;;;1.67;;
72611;SDS011;60655;52.182;4.474;2023-08-21T04:01:27;10.52;;;1.80;;
72611;SDS011;60655;52.182;4.474;2023-08-21T04:03:28;4.93;;;1.42;;
72611;SDS011;60655;52.182;4.474;2023-08-21T04:05:29;4.55;;;1.52;;
72611;SDS011;60655;52.182;4.474;2023-08-21T04:07:30;7.78;;;1.70;;
72611;SDS011;60655;52.182;4.474;2023-08-21T04:09:31;7.00;;;1.88;;
72611;SDS011;60655;52.182;4.474;2023-08-21T04:11:32;4.97;;;1.90;;
72611;SDS011;60655;52.182;4.474;2023-08-21T04:13:33;6.85;;;1.65;;
72611;SDS011;60655;52.182;4.474;2023-08-21T04:15:34;5.38;;;1.60;;
72611;SDS011;60655;52.182;4.474;2023-08-21T04:17:35;4.47;;;1.65;;
72611;SDS011;60655;52.182;4.474;2023-08-21T04:19:36;6.05;;;1.60;;
72611;SDS011;60655;52.182;4.474;2023-08-21T04:21:37;4.95;;;1.48;;
72611;SDS011;60655;52.182;4.474;2023-08-21T04:23:38;4.63;;;1.60;;
72611;SDS011;60655;52.182;4.474;2023-08-21T04:25:39;6.10;;;1.48;;
72611;SDS011;60655;52.182;4.474;2023-08-21T04:27:40;5.28;;;1.63;;
72611;SDS011;60655;52.182;4.474;2023-08-21T04:29:42;6.43;;;1.67;;
72611;SDS011;60655;52.182;4.474;2023-08-21T04:31:43;4.60;;;1.80;;
72611;SDS011;60655;52.182;4.474;2023-08-21T04:33:44;5.03;;;1.42;;
72611;SDS011;60655;52.182;4.474;2023-08-21T04:35:45;5.20;;;1.80;;
72611;SDS011;60655;52.182;4.474;2023-08-21T04:37:46;7.55;;;1.88;;
72611;SDS011;60655;52.182;4.474;2023-08-21T04:39:51;4.85;;;1.48;;
72611;SDS011;60655;52.182;4.474;2023-08-21T04:41:53;5.55;;;1.63;;
72611;SDS011;60655;52.182;4.474;2023-08-21T04:43:53;5.57;;;1.70;;
72611;SDS011;60655;52.182;4.474;2023-08-21T04:45:54;7.55;;;2.15;;
72611;SDS011;60655;52.182;4.474;2023-08-21T04:47:55;8.02;;;2.05;;
72611;SDS011;60655;52.182;4.474;2023-08-21T04:49:56;5.25;;;1.52;;
72611;SDS011;60655;52.182;4.474;2023-08-21T04:51:58;4.22;;;1.48;;
72611;SDS011;60655;52.182;4.474;2023-08-21T04:53:59;5.25;;;1.70;;
72611;SDS011;60655;52.182;4.474;2023-08-21T04:56:00;5.97;;;1.70;;
72611;SDS011;60655;52.182;4.474;2023-08-21T04:58:01;6.40;;;1.80;;
72611;SDS011;60655;52.182;4.474;2023-08-21T05:00:02;7.88;;;1.80;;
72611;SDS011;60655;52.182;4.474;2023-08-21T05:02:04;6.43;;;1.83;;
72611;SDS011;60655;52.182;4.474;2023-08-21T05:04:05;5.22;;;1.65;;
72611;SDS011;60655;52.182;4.474;2023-08-21T05:06:06;7.85;;;1.88;;
72611;SDS011;60655;52.182;4.474;2023-08-21T05:08:07;7.18;;;2.03;;
72611;SDS011;60655;52.182;4.474;2023-08-21T05:10:08;7.63;;;2.17;;
72611;SDS011;60655;52.182;4.474;2023-08-21T05:12:09;6.05;;;1.70;;
72611;SDS011;60655;52.182;4.474;2023-08-21T05:14:10;6.93;;;1.92;;
72611;SDS011;60655;52.182;4.474;2023-08-21T05:16:11;9.90;;;2.03;;
72611;SDS011;60655;52.182;4.474;2023-08-21T05:18:12;6.63;;;2.10;;
72611;SDS011;60655;52.182;4.474;2023-08-21T05:20:13;5.57;;;2.10;;
72611;SDS011;60655;52.182;4.474;2023-08-21T05:22:15;6.75;;;2.10;;
72611;SDS011;60655;52.182;4.474;2023-08-21T05:24:16;6.28;;;1.83;;
72611;SDS011;60655;52.182;4.474;2023-08-21T05:26:17;6.90;;;2.13;;
72611;SDS011;60655;52.182;4.474;2023-08-21T05:28:18;7.45;;;2.35;;
72611;SDS011;60655;52.182;4.474;2023-08-21T05:30:19;9.77;;;2.70;;
72611;SDS011;60655;52.182;4.474;2023-08-21T05:32:20;9.10;;;2.78;;
72611;SDS011;60655;52.182;4.474;2023-08-21T05:34:21;7.78;;;2.03;;
72611;SDS011;60655;52.182;4.474;2023-08-21T05:36:22;9.48;;;2.75;;
72611;SDS011;60655;52.182;4.474;2023-08-21T05:38:23;7.80;;;2.40;;
72611;SDS011;60655;52.182;4.474;2023-08-21T05:40:23;7.22;;;2.10;;
72611;SDS011;60655;52.182;4.474;2023-08-21T05:42:24;7.85;;;2.30;;
72611;SDS011;60655;52.182;4.474;2023-08-21T05:44:25;11.40;;;2.80;;
72611;SDS011;60655;52.182;4.474;2023-08-21T05:46:26;5.57;;;2.65;;
72611;SDS011;60655;52.182;4.474;2023-08-21T05:48:27;7.80;;;2.70;;
72611;SDS011;60655;52.182;4.474;2023-08-21T05:50:28;7.07;;;2.30;;
72611;SDS011;60655;52.182;4.474;2023-08-21T05:52:29;7.53;;;2.88;;
72611;SDS011;60655;52.182;4.474;2023-08-21T05:54:30;9.23;;;2.60;;
72611;SDS011;60655;52.182;4.474;2023-08-21T05:56:31;9.73;;;2.72;;
72611;SDS011;60655;52.182;4.474;2023-08-21T05:58:32;7.25;;;2.60;;
72611;SDS011;60655;52.182;4.474;2023-08-21T06:00:33;8.38;;;2.70;;
72611;SDS011;60655;52.182;4.474;2023-08-21T06:02:35;9.25;;;2.80;;
72611;SDS011;60655;52.182;4.474;2023-08-21T06:04:39;6.30;;;2.40;;
72611;SDS011;60655;52.182;4.474;2023-08-21T06:06:41;11.77;;;3.13;;
72611;SDS011;60655;52.182;4.474;2023-08-21T06:08:42;7.80;;;2.53;;
72611;SDS011;60655;52.182;4.474;2023-08-21T06:10:43;6.63;;;2.30;;
72611;SDS011;60655;52.182;4.474;2023-08-21T06:12:44;8.48;;;2.72;;
72611;SDS011;60655;52.182;4.474;2023-08-21T06:14:45;13.40;;;3.08;;
72611;SDS011;60655;52.182;4.474;2023-08-21T06:16:46;9.18;;;2.83;;
72611;SDS011;60655;52.182;4.474;2023-08-21T06:18:47;8.38;;;2.90;;
72611;SDS011;60655;52.182;4.474;2023-08-21T06:20:49;13.98;;;3.15;;
72611;SDS011;60655;52.182;4.474;2023-08-21T06:22:53;6.97;;;2.53;;
72611;SDS011;60655;52.182;4.474;2023-08-21T06:24:54;8.27;;;3.05;;
72611;SDS011;60655;52.182;4.474;2023-08-21T06:26:55;14.65;;;4.00;;
72611;SDS011;60655;52.182;4.474;2023-08-21T06:28:56;9.80;;;3.35;;
72611;SDS011;60655;52.182;4.474;2023-08-21T06:30:57;9.48;;;3.50;;
72611;SDS011;60655;52.182;4.474;2023-08-21T06:32:58;12.70;;;3.92;;
72611;SDS011;60655;52.182;4.474;2023-08-21T06:34:59;11.70;;;3.17;;
72611;SDS011;60655;52.182;4.474;2023-08-21T06:37:00;14.43;;;3.53;;
72611;SDS011;60655;52.182;4.474;2023-08-21T06:39:01;13.02;;;4.50;;
72611;SDS011;60655;52.182;4.474;2023-08-21T06:41:02;12.38;;;4.20;;
72611;SDS011;60655;52.182;4.474;2023-08-21T06:43:03;12.57;;;4.10;;
72611;SDS011;60655;52.182;4.474;2023-08-21T06:45:06;13.35;;;3.80;;
72611;SDS011;60655;52.182;4.474;2023-08-21T06:47:08;13.98;;;4.82;;
72611;SDS011;60655;52.182;4.474;2023-08-21T06:49:09;13.00;;;4.07;;
72611;SDS011;60655;52.182;4.474;2023-08-21T06:51:10;12.57;;;4.25;;
72611;SDS011;60655;52.182;4.474;2023-08-21T06:53:12;14.30;;;4.75;;
72611;SDS011;60655;52.182;4.474;2023-08-21T06:55:13;13.25;;;4.18;;
72611;SDS011;60655;52.182;4.474;2023-08-21T06:57:14;11.70;;;3.38;;
72611;SDS011;60655;52.182;4.474;2023-08-21T06:59:15;15.57;;;4.00;;
72611;SDS011;60655;52.182;4.474;2023-08-21T07:01:16;17.98;;;4.00;;
72611;SDS011;60655;52.182;4.474;2023-08-21T07:03:17;12.35;;;3.70;;
72611;SDS011;60655;52.182;4.474;2023-08-21T07:05:18;13.40;;;3.80;;
72611;SDS011;60655;52.182;4.474;2023-08-21T07:07:19;14.05;;;3.90;;
72611;SDS011;60655;52.182;4.474;2023-08-21T07:09:20;12.20;;;3.60;;
72611;SDS011;60655;52.182;4.474;2023-08-21T07:11:21;13.52;;;3.70;;
72611;SDS011;60655;52.182;4.474;2023-08-21T07:13:22;14.63;;;4.20;;
72611;SDS011;60655;52.182;4.474;2023-08-21T07:15:23;17.58;;;3.97;;
72611;SDS011;60655;52.182;4.474;2023-08-21T07:17:24;13.65;;;3.35;;
72611;SDS011;60655;52.182;4.474;2023-08-21T07:19:25;15.00;;;2.92;;
72611;SDS011;60655;52.182;4.474;2023-08-21T07:21:26;16.33;;;3.75;;
72611;SDS011;60655;52.182;4.474;2023-08-21T07:23:26;10.88;;;2.88;;
72611;SDS011;60655;52.182;4.474;2023-08-21T07:25:28;10.30;;;3.10;;
72611;SDS011;60655;52.182;4.474;2023-08-21T07:27:29;9.70;;;2.97;;
72611;SDS011;60655;52.182;4.474;2023-08-21T07:29:30;14.05;;;2.80;;
72611;SDS011;60655;52.182;4.474;2023-08-21T07:31:31;16.92;;;3.42;;
72611;SDS011;60655;52.182;4.474;2023-08-21T07:33:32;14.88;;;2.60;;
72611;SDS011;60655;52.182;4.474;2023-08-21T07:35:33;15.55;;;3.08;;
72611;SDS011;60655;52.182;4.474;2023-08-21T07:37:34;13.73;;;3.15;;
72611;SDS011;60655;52.182;4.474;2023-08-21T07:39:35;11.43;;;2.50;;
72611;SDS011;60655;52.182;4.474;2023-08-21T07:41:36;13.30;;;2.80;;
72611;SDS011;60655;52.182;4.474;2023-08-21T07:43:38;14.32;;;2.63;;
72611;SDS011;60655;52.182;4.474;2023-08-21T07:45:40;12.38;;;3.38;;
72611;SDS011;60655;52.182;4.474;2023-08-21T07:47:41;12.07;;;2.58;;
72611;SDS011;60655;52.182;4.474;2023-08-21T07:49:42;14.55;;;2.80;;
72611;SDS011;60655;52.182;4.474;2023-08-21T07:51:43;11.68;;;1.90;;
72611;SDS011;60655;52.182;4.474;2023-08-21T07:53:44;13.63;;;2.50;;
72611;SDS011;60655;52.182;4.474;2023-08-21T07:55:45;9.95;;;2.60;;
72611;SDS011;60655;52.182;4.474;2023-08-21T07:57:46;11.18;;;2.80;;
72611;SDS011;60655;52.182;4.474;2023-08-21T07:59:48;8.27;;;1.90;;
72611;SDS011;60655;52.182;4.474;2023-08-21T08:01:49;9.85;;;2.10;;
72611;SDS011;60655;52.182;4.474;2023-08-21T08:03:50;9.65;;;2.40;;
72611;SDS011;60655;52.182;4.474;2023-08-21T08:05:51;11.27;;;2.13;;
72611;SDS011;60655;52.182;4.474;2023-08-21T08:07:52;6.75;;;1.50;;
72611;SDS011;60655;52.182;4.474;2023-08-21T08:09:53;8.98;;;1.90;;
72611;SDS011;60655;52.182;4.474;2023-08-21T08:11:54;12.60;;;2.10;;
72611;SDS011;60655;52.182;4.474;2023-08-21T08:13:55;8.27;;;1.52;;
72611;SDS011;60655;52.182;4.474;2023-08-21T08:15:56;11.60;;;2.03;;
72611;SDS011;60655;52.182;4.474;2023-08-21T08:17:57;9.90;;;2.08;;
72611;SDS011;60655;52.182;4.474;2023-08-21T08:19:58;8.32;;;1.55;;
72611;SDS011;60655;52.182;4.474;2023-08-21T08:21:59;11.90;;;2.00;;
72611;SDS011;60655;52.182;4.474;2023-08-21T08:24:00;12.10;;;1.90;;
72611;SDS011;60655;52.182;4.474;2023-08-21T08:26:01;6.70;;;1.70;;
72611;SDS011;60655;52.182;4.474;2023-08-21T08:28:02;7.50;;;2.20;;
72611;SDS011;60655;52.182;4.474;2023-08-21T08:30:04;5.22;;;1.50;;
72611;SDS011;60655;52.182;4.474;2023-08-21T08:32:05;7.15;;;1.65;;
72611;SDS011;60655;52.182;4.474;2023-08-21T08:34:06;6.82;;;1.50;;
72611;SDS011;60655;52.182;4.474;2023-08-21T08:36:07;9.30;;;1.65;;
72611;SDS011;60655;52.182;4.474;2023-08-21T08:38:08;7.90;;;1.52;;
72611;SDS011;60655;52.182;4.474;2023-08-21T08:40:10;8.35;;;1.50;;
72611;SDS011;60655;52.182;4.474;2023-08-21T08:42:12;7.78;;;1.50;;
72611;SDS011;60655;52.182;4.474;2023-08-21T08:44:14;7.25;;;1.60;;
72611;SDS011;60655;52.182;4.474;2023-08-21T08:46:17;6.50;;;1.38;;
72611;SDS011;60655;52.182;4.474;2023-08-21T08:48:19;8.00;;;1.55;;
72611;SDS011;60655;52.182;4.474;2023-08-21T08:50:21;6.90;;;1.88;;
72611;SDS011;60655;52.182;4.474;2023-08-21T08:52:22;5.20;;;1.50;;
72611;SDS011;60655;52.182;4.474;2023-08-21T08:54:27;3.65;;;1.25;;
72611;SDS011;60655;52.182;4.474;2023-08-21T08:56:30;5.57;;;1.50;;
72611;SDS011;60655;52.182;4.474;2023-08-21T08:58:31;5.93;;;1.75;;
72611;SDS011;60655;52.182;4.474;2023-08-21T09:00:32;7.93;;;1.50;;
72611;SDS011;60655;52.182;4.474;2023-08-21T09:02:33;8.48;;;1.52;;
72611;SDS011;60655;52.182;4.474;2023-08-21T09:04:34;4.55;;;1.13;;
72611;SDS011;60655;52.182;4.474;2023-08-21T09:06:35;7.10;;;1.50;;
72611;SDS011;60655;52.182;4.474;2023-08-21T09:08:36;7.07;;;1.20;;
72611;SDS011;60655;52.182;4.474;2023-08-21T09:10:37;6.22;;;1.30;;
72611;SDS011;60655;52.182;4.474;2023-08-21T09:12:39;6.53;;;1.23;;
72611;SDS011;60655;52.182;4.474;2023-08-21T09:14:40;7.28;;;1.30;;
72611;SDS011;60655;52.182;4.474;2023-08-21T09:17:04;6.97;;;1.40;;
72611;SDS011;60655;52.182;4.474;2023-08-21T09:19:04;4.65;;;1.33;;
72611;SDS011;60655;52.182;4.474;2023-08-21T09:21:05;11.15;;;1.60;;
72611;SDS011;60655;52.182;4.474;2023-08-21T09:23:07;6.28;;;1.33;;
72611;SDS011;60655;52.182;4.474;2023-08-21T09:25:13;5.75;;;1.33;;
72611;SDS011;60655;52.182;4.474;2023-08-21T09:27:15;3.85;;;1.02;;
72611;SDS011;60655;52.182;4.474;2023-08-21T09:29:17;9.25;;;1.50;;
72611;SDS011;60655;52.182;4.474;2023-08-21T09:31:32;6.22;;;1.50;;
72611;SDS011;60655;52.182;4.474;2023-08-21T09:33:33;9.57;;;1.65;;
72611;SDS011;60655;52.182;4.474;2023-08-21T09:35:34;5.90;;;1.27;;
72611;SDS011;60655;52.182;4.474;2023-08-21T09:37:35;5.75;;;1.20;;
72611;SDS011;60655;52.182;4.474;2023-08-21T09:39:37;5.18;;;1.30;;
72611;SDS011;60655;52.182;4.474;2023-08-21T09:41:38;5.88;;;1.20;;
72611;SDS011;60655;52.182;4.474;2023-08-21T09:43:42;6.20;;;1.38;;
72611;SDS011;60655;52.182;4.474;2023-08-21T09:45:46;5.53;;;1.40;;
72611;SDS011;60655;52.182;4.474;2023-08-21T09:47:48;5.07;;;1.13;;
72611;SDS011;60655;52.182;4.474;2023-08-21T09:49:49;7.95;;;1.58;;
72611;SDS011;60655;52.182;4.474;2023-08-21T09:51:50;4.10;;;1.13;;
72611;SDS011;60655;52.182;4.474;2023-08-21T09:53:54;5.25;;;1.58;;
72611;SDS011;60655;52.182;4.474;2023-08-21T09:55:56;4.88;;;1.02;;
72611;SDS011;60655;52.182;4.474;2023-08-21T09:57:58;6.47;;;1.20;;
72611;SDS011;60655;52.182;4.474;2023-08-21T10:00:00;7.53;;;1.30;;
72611;SDS011;60655;52.182;4.474;2023-08-21T10:02:14;8.18;;;1.20;;
72611;SDS011;60655;52.182;4.474;2023-08-21T10:04:15;7.32;;;1.10;;
72611;SDS011;60655;52.182;4.474;2023-08-21T10:06:17;6.05;;;1.20;;
72611;SDS011;60655;52.182;4.474;2023-08-21T10:08:21;4.03;;;0.93;;
72611;SDS011;60655;52.182;4.474;2023-08-21T10:10:25;4.47;;;1.25;;
72611;SDS011;60655;52.182;4.474;2023-08-21T10:12:27;4.65;;;1.30;;
72611;SDS011;60655;52.182;4.474;2023-08-21T10:14:28;7.55;;;1.63;;
72611;SDS011;60655;52.182;4.474;2023-08-21T10:16:29;3.95;;;0.90;;
72611;SDS011;60655;52.182;4.474;2023-08-21T10:18:31;5.35;;;1.23;;
72611;SDS011;60655;52.182;4.474;2023-08-21T10:20:33;5.53;;;1.10;;
72611;SDS011;60655;52.182;4.474;2023-08-21T10:22:38;4.18;;;1.05;;
72611;SDS011;60655;52.182;4.474;2023-08-21T10:24:42;3.22;;;0.90;;
72611;SDS011;60655;52.182;4.474;2023-08-21T10:26:43;3.22;;;0.90;;
72611;SDS011;60655;52.182;4.474;2023-08-21T10:30:51;3.28;;;1.10;;
72611;SDS011;60655;52.182;4.474;2023-08-21T10:32:53;6.05;;;1.27;;
72611;SDS011;60655;52.182;4.474;2023-08-21T10:34:55;4.63;;;1.23;;
72611;SDS011;60655;52.182;4.474;2023-08-21T10:39:00;6.47;;;1.52;;
72611;SDS011;60655;52.182;4.474;2023-08-21T10:41:05;3.90;;;0.85;;
72611;SDS011;60655;52.182;4.474;2023-08-21T10:45:55;5.75;;;1.30;;
72611;SDS011;60655;52.182;4.474;2023-08-21T10:49:58;4.03;;;0.98;;
72611;SDS011;60655;52.182;4.474;2023-08-21T10:52:01;5.32;;;1.08;;
72611;SDS011;60655;52.182;4.474;2023-08-21T10:54:13;4.20;;;1.10;;
72611;SDS011;60655;52.182;4.474;2023-08-21T10:56:14;5.50;;;1.20;;
72611;SDS011;60655;52.182;4.474;2023-08-21T10:58:15;4.20;;;0.98;;
72611;SDS011;60655;52.182;4.474;2023-08-21T11:00:17;4.25;;;1.10;;
72611;SDS011;60655;52.182;4.474;2023-08-21T11:02:19;4.55;;;1.00;;
72611;SDS011;60655;52.182;4.474;2023-08-21T11:04:20;7.18;;;1.08;;
72611;SDS011;60655;52.182;4.474;2023-08-21T11:06:21;5.03;;;1.10;;
72611;SDS011;60655;52.182;4.474;2023-08-21T11:08:23;4.22;;;1.00;;
72611;SDS011;60655;52.182;4.474;2023-08-21T11:10:24;5.55;;;0.98;;
72611;SDS011;60655;52.182;4.474;2023-08-21T11:12:28;4.35;;;1.00;;
72611;SDS011;60655;52.182;4.474;2023-08-21T11:14:29;6.75;;;1.23;;
72611;SDS011;60655;52.182;4.474;2023-08-21T11:16:30;7.25;;;1.20;;
72611;SDS011;60655;52.182;4.474;2023-08-21T11:18:32;3.60;;;1.10;;
72611;SDS011;60655;52.182;4.474;2023-08-21T11:20:37;6.15;;;1.20;;
72611;SDS011;60655;52.182;4.474;2023-08-21T11:22:38;6.20;;;1.10;;
72611;SDS011;60655;52.182;4.474;2023-08-21T11:24:39;5.35;;;1.00;;
72611;SDS011;60655;52.182;4.474;2023-08-21T11:26:42;4.32;;;1.08;;
72611;SDS011;60655;52.182;4.474;2023-08-21T11:28:43;5.35;;;1.15;;
72611;SDS011;60655;52.182;4.474;2023-08-21T11:30:44;5.10;;;1.10;;
72611;SDS011;60655;52.182;4.474;2023-08-21T11:32:45;6.85;;;1.20;;
72611;SDS011;60655;52.182;4.474;2023-08-21T11:34:47;5.13;;;1.25;;
72611;SDS011;60655;52.182;4.474;2023-08-21T11:36:50;7.18;;;1.30;;
72611;SDS011;60655;52.182;4.474;2023-08-21T11:38:58;4.60;;;1.30;;
72611;SDS011;60655;52.182;4.474;2023-08-21T11:41:01;3.75;;;1.13;;
72611;SDS011;60655;52.182;4.474;2023-08-21T11:43:05;6.18;;;1.60;;
72611;SDS011;60655;52.182;4.474;2023-08-21T11:45:08;3.40;;;1.17;;
72611;SDS011;60655;52.182;4.474;2023-08-21T11:47:11;6.18;;;1.05;;
72611;SDS011;60655;52.182;4.474;2023-08-21T11:49:13;5.50;;;1.35;;
72611;SDS011;60655;52.182;4.474;2023-08-21T11:51:14;5.72;;;1.23;;
72611;SDS011;60655;52.182;4.474;2023-08-21T11:53:14;5.88;;;1.20;;
72611;SDS011;60655;52.182;4.474;2023-08-21T11:55:16;4.15;;;0.98;;
72611;SDS011;60655;52.182;4.474;2023-08-21T11:57:18;5.60;;;1.00;;
72611;SDS011;60655;52.182;4.474;2023-08-21T11:59:22;3.85;;;1.02;;
72611;SDS011;60655;52.182;4.474;2023-08-21T12:01:24;3.30;;;0.93;;
72611;SDS011;60655;52.182;4.474;2023-08-21T12:03:25;3.10;;;1.00;;
72611;SDS011;60655;52.182;4.474;2023-08-21T12:05:27;4.28;;;1.10;;
72611;SDS011;60655;52.182;4.474;2023-08-21T12:07:28;6.50;;;1.23;;
72611;SDS011;60655;52.182;4.474;2023-08-21T12:09:29;3.42;;;0.80;;
72611;SDS011;60655;52.182;4.474;2023-08-21T12:11:30;6.65;;;1.08;;
72611;SDS011;60655;52.182;4.474;2023-08-21T12:13:31;3.17;;;0.98;;
72611;SDS011;60655;52.182;4.474;2023-08-21T12:15:32;7.65;;;1.27;;
72611;SDS011;60655;52.182;4.474;2023-08-21T12:17:34;3.50;;;0.90;;
72611;SDS011;60655;52.182;4.474;2023-08-21T12:19:35;2.90;;;0.85;;
72611;SDS011;60655;52.182;4.474;2023-08-21T12:21:37;5.80;;;1.17;;
72611;SDS011;60655;52.182;4.474;2023-08-21T12:23:38;4.95;;;0.90;;
72611;SDS011;60655;52.182;4.474;2023-08-21T12:25:39;5.72;;;1.17;;